GLR weather

Gaylord Regional Airport
Gaylord, Michigan, United States

Public forecast

Using degrees Fahrenheit for public forecast. Weather courtesy of forecast.io.

Current aviation weather report (METAR) for Gaylord Regional Airport

Retrieved 2019/10/20 21:53 UTC (53 minutes ago):

KGLR 202153Z AUTO 33004KT 10SM CLR 15/07 A2993 RMK AO2 SLP140 T01500067

Closest aviation forecast (TAF) to Gaylord Regional Airport

Closest forecast is Pellston Regional Airport of Emmet County Airport, 33.7 nm (62.4 km) N. Retrieved 2019/10/20 18:28 UTC (4 hours ago):

TAF KPLN 201725Z 2018/2118 29008KT P6SM FEW018 FM210000 00000KT P6SM FEW250 FM210400 00000KT 4SM BR SCT200 FM210700 10006KT 3SM BR BKN011 FM211100 11009KT 2SM BR OVC008 WS010/14030KT FM211300 11011G19KT P6SM OVC007 WS010/14030KT FM211600 11013G23KT P6SM OVC011